Time;durP1;ratioP1;P1;durP2;ratioP2;P2;SDS_P1;SDS_P2;PMS_P1;PMS_P2;Temp;Humidity;BMP_temperature;BMP_pressure;BME280_temperature;BME280_humidity;BME280_pressure;Samples;Min_cycle;Max_cycle;Signal;HPM_P1;HPM_P2
2022/11/08 00:01:58;;;;;;;;;9.25;7.25;;;;;14.53;67.31;100183.84;5056475;28;45638;-80
2022/11/08 00:04:24;;;;;;;;;10.00;9.75;;;;;14.55;67.27;100179.25;5056594;28;45556;-83
2022/11/08 00:15:03;;;;;;;;;9.00;6.00;;;;;14.46;67.23;100161.69;5039151;28;45873;-82
2022/11/08 00:17:31;;;;;;;;;10.50;9.00;;;;;14.47;67.22;100163.31;5054064;28;47284;-80
2022/11/08 00:19:57;;;;;;;;;6.25;5.75;;;;;14.47;67.24;100145.72;5056423;28;46225;-80
2022/11/08 00:22:23;;;;;;;;;6.50;6.00;;;;;14.43;67.15;100140.88;5056344;28;45628;-82
2022/11/08 00:24:48;;;;;;;;;6.00;5.50;;;;;14.37;66.99;100130.91;5056473;28;45654;-81
2022/11/08 00:27:20;;;;;;;;;10.25;9.00;;;;;14.42;67.00;100137.41;5056092;28;46307;-82
2022/11/08 00:29:45;;;;;;;;;5.75;4.25;;;;;14.13;67.21;100091.88;5053458;28;47196;-83
2022/11/08 00:32:15;;;;;;;;;9.25;7.00;;;;;14.30;66.92;100120.09;5053507;28;45494;-82
2022/11/08 00:34:40;;;;;;;;;5.50;5.50;;;;;14.37;67.00;100120.38;5053895;28;45690;-82
2022/11/08 00:37:06;;;;;;;;;9.75;9.75;;;;;14.25;67.10;100099.44;5053428;28;45596;-83
2022/11/08 00:39:34;;;;;;;;;9.75;8.25;;;;;14.26;67.03;100098.47;5053929;28;45943;-84
2022/11/08 00:42:00;;;;;;;;;5.25;5.25;;;;;14.31;66.73;100098.03;5053315;28;45850;-82
2022/11/08 00:44:25;;;;;;;;;5.00;5.00;;;;;14.29;67.16;100092.09;5053624;28;45704;-84
2022/11/08 00:46:50;;;;;;;;;8.00;5.50;;;;;14.25;66.99;100085.47;5053545;28;46580;-83
2022/11/08 00:49:16;;;;;;;;;5.50;5.00;;;;;14.22;66.85;100078.66;5053370;28;45678;-83
2022/11/08 00:51:47;;;;;;;;;4.50;4.50;;;;;14.17;66.92;100070.38;5052690;28;45723;-82
2022/11/08 00:54:18;;;;;;;;;5.00;4.00;;;;;14.16;66.54;100075.78;5053624;28;45617;-84
2022/11/08 00:56:45;;;;;;;;;4.00;4.00;;;;;14.12;67.08;100063.88;5053610;28;46512;-82
2022/11/08 00:59:12;;;;;;;;;6.50;4.50;;;;;14.10;66.60;100071.06;5053365;28;46022;-82
2022/11/08 01:01:37;;;;;;;;;5.00;4.00;;;;;14.04;66.68;100064.59;5055081;28;45691;-81
2022/11/08 01:04:03;;;;;;;;;3.25;3.25;;;;;14.03;66.52;100065.59;5057007;28;45566;-82
2022/11/08 01:06:28;;;;;;;;;6.75;5.25;;;;;14.03;66.59;100070.00;5057345;28;46608;-80
2022/11/08 01:08:54;;;;;;;;;4.75;4.75;;;;;14.00;66.85;100062.38;5057485;28;46226;-81
2022/11/08 01:11:21;;;;;;;;;6.00;5.25;;;;;14.00;66.56;100060.59;5057591;28;45908;-83
2022/11/08 01:13:48;;;;;;;;;6.00;5.25;;;;;13.99;66.66;100058.91;5059327;28;45700;-82
2022/11/08 01:16:16;;;;;;;;;6.00;5.00;;;;;13.97;66.92;100052.16;5058754;28;45607;-83
2022/11/08 01:18:42;;;;;;;;;5.25;5.00;;;;;13.97;66.45;100074.06;5058914;28;46206;-82
2022/11/08 01:24:29;;;;;;;;;5.75;3.00;;;;;13.94;66.54;100048.00;5057680;28;45613;-82
2022/11/08 01:26:54;;;;;;;;;7.00;5.25;;;;;13.94;66.47;100052.41;5056852;28;45783;-82
2022/11/08 01:29:20;;;;;;;;;5.75;5.00;;;;;13.91;66.43;100045.66;5056478;28;45716;-81
2022/11/08 01:31:45;;;;;;;;;5.00;4.00;;;;;13.87;66.73;100037.19;5056372;28;46153;-82
2022/11/08 01:34:10;;;;;;;;;5.00;4.00;;;;;13.92;66.44;100044.69;5059398;28;45790;-82
2022/11/08 01:36:36;;;;;;;;;6.75;6.00;;;;;13.88;66.77;100043.28;5059235;28;46462;-82
2022/11/08 01:39:01;;;;;;;;;4.75;4.25;;;;;13.91;66.65;100047.44;5058783;28;46613;-82
2022/11/08 01:41:26;;;;;;;;;3.25;3.25;;;;;13.88;66.37;100045.91;5056381;28;45867;-80
2022/11/08 01:43:57;;;;;;;;;5.25;5.25;;;;;13.85;66.12;100039.16;5056464;28;45854;-82
2022/11/08 01:46:34;;;;;;;;;5.00;5.00;;;;;13.88;66.26;100049.38;5056309;28;45597;-81
2022/11/08 01:55:44;;;;;;;;;5.25;4.25;;;;;13.80;66.07;100024.75;5055705;28;45587;-80
2022/11/08 01:58:23;;;;;;;;;3.25;3.25;;;;;13.84;66.54;100026.97;5056190;28;46978;-81
2022/11/08 02:00:51;;;;;;;;;6.25;4.00;;;;;13.63;66.37;99999.19;5036940;28;47950;-81
2022/11/08 02:03:19;;;;;;;;;3.00;3.00;;;;;13.78;66.28;100016.16;5055790;28;45812;-83
2022/11/08 02:05:45;;;;;;;;;8.25;4.50;;;;;13.82;66.43;100014.91;5055872;28;45796;-82
2022/11/08 02:08:21;;;;;;;;;5.00;4.00;;;;;13.79;66.26;100012.56;5055409;28;45598;-81
2022/11/08 02:10:50;;;;;;;;;6.00;5.00;;;;;13.56;66.25;99988.38;5055283;28;46318;-81
2022/11/08 02:13:19;;;;;;;;;6.00;4.00;;;;;13.76;66.03;100015.50;5055204;28;45546;-81
2022/11/08 02:15:45;;;;;;;;;4.50;4.00;;;;;13.73;66.17;100002.59;5055882;28;45640;-79
2022/11/08 02:18:12;;;;;;;;;5.50;5.00;;;;;13.63;66.38;99983.38;5055675;28;46307;-81
2022/11/08 02:20:46;;;;;;;;;4.25;4.00;;;;;13.68;65.92;99989.88;5054835;28;45974;-81
2022/11/08 02:23:16;;;;;;;;;4.50;4.50;;;;;13.69;66.06;99981.00;5037404;28;45641;-78
2022/11/08 02:25:41;;;;;;;;;4.00;4.00;;;;;13.46;65.82;99948.13;5055791;28;45668;-79
2022/11/08 02:28:07;;;;;;;;;4.50;4.25;;;;;13.66;66.07;99972.56;5058001;28;47148;-81
2022/11/08 02:30:37;;;;;;;;;4.00;3.25;;;;;13.63;66.06;99959.69;5058068;28;45671;-82
2022/11/08 02:33:20;;;;;;;;;4.00;4.00;;;;;13.40;65.83;99922.38;5057705;28;45956;-80
2022/11/08 02:35:53;;;;;;;;;4.75;4.25;;;;;13.59;65.97;99951.28;5055260;28;45660;-82
2022/11/08 02:38:19;;;;;;;;;3.00;3.00;;;;;13.44;65.73;99924.56;5055329;28;46405;-79
2022/11/08 02:40:55;;;;;;;;;4.50;3.50;;;;;13.55;66.02;99939.34;5054675;28;45897;-80
2022/11/08 02:43:22;;;;;;;;;5.00;4.00;;;;;13.53;66.01;99948.38;5055089;28;45490;-78
2022/11/08 02:45:48;;;;;;;;;3.75;3.75;;;;;13.51;65.80;99943.25;5058114;28;45603;-77
2022/11/08 02:48:14;;;;;;;;;4.00;3.25;;;;;13.51;65.90;99935.34;5057628;28;46695;-80
2022/11/08 02:50:40;;;;;;;;;3.50;3.50;;;;;13.47;65.94;99936.63;5058161;28;46190;-80
2022/11/08 02:53:06;;;;;;;;;3.75;3.75;;;;;13.31;65.71;99910.09;5055479;28;45931;-78
2022/11/08 02:55:33;;;;;;;;;4.00;4.00;;;;;13.37;65.24;99910.34;5055092;28;45661;-81
2022/11/08 02:57:58;;;;;;;;;3.50;3.50;;;;;13.44;65.37;99924.56;5054155;28;47342;-83
2022/11/08 03:00:24;;;;;;;;;2.75;2.25;;;;;13.45;65.57;99938.56;5054741;28;45899;-82
2022/11/08 03:02:54;;;;;;;;;4.00;3.00;;;;;13.45;65.29;99931.50;5054890;28;45701;-81
2022/11/08 03:05:20;;;;;;;;;5.00;3.00;;;;;13.40;65.04;99920.56;5055044;28;45535;-81
2022/11/08 03:07:46;;;;;;;;;3.00;3.00;;;;;13.41;64.85;99929.31;5054299;28;46392;-80
2022/11/08 03:10:12;;;;;;;;;3.25;3.00;;;;;13.38;64.77;99927.81;5054285;28;46088;-81
2022/11/08 03:12:38;;;;;;;;;3.00;3.00;;;;;13.36;65.27;99932.38;5035223;28;46518;-80
2022/11/08 03:15:06;;;;;;;;;3.00;2.00;;;;;13.39;64.58;99937.34;5054499;28;45652;-80
2022/11/08 03:17:32;;;;;;;;;2.00;2.00;;;;;13.38;64.96;99934.88;5054284;28;47046;-79
2022/11/08 03:19:57;;;;;;;;;3.75;3.25;;;;;13.38;64.75;99932.22;5053992;28;46959;-78
2022/11/08 03:25:44;;;;;;;;;3.00;2.00;;;;;13.37;64.59;99951.63;5054735;28;45784;-81
2022/11/08 03:28:11;;;;;;;;;2.00;2.00;;;;;13.33;64.31;99937.09;5053973;28;46664;-81
2022/11/08 03:30:36;;;;;;;;;3.75;3.00;;;;;13.34;64.37;99941.38;5054142;28;45743;-80
2022/11/08 03:33:02;;;;;;;;;3.00;3.00;;;;;13.33;64.69;99937.91;5054429;28;45571;-81
2022/11/08 03:35:27;;;;;;;;;4.75;3.00;;;;;13.33;64.68;99937.09;5036541;28;45547;-82
2022/11/08 03:37:55;;;;;;;;;3.25;3.00;;;;;13.29;64.57;99928.63;5053998;28;46459;-80
2022/11/08 03:40:21;;;;;;;;;3.00;2.00;;;;;13.32;63.98;99940.69;5039160;28;46119;-82
2022/11/08 03:42:48;;;;;;;;;3.00;3.00;;;;;13.32;64.48;99933.63;5056857;28;45667;-80
2022/11/08 03:45:15;;;;;;;;;2.50;2.50;;;;;13.27;64.21;99924.50;5056527;28;45703;-81
2022/11/08 03:47:43;;;;;;;;;3.00;2.00;;;;;13.30;64.15;99924.22;5054002;28;46454;-81
2022/11/08 03:56:18;;;;;;;;;3.75;3.75;;;;;13.26;63.88;99928.09;4992801;28;45631;-80
2022/11/08 03:58:45;;;;;;;;;2.75;2.00;;;;;13.26;64.21;99923.69;4995258;28;47226;-81
2022/11/08 04:01:13;;;;;;;;;3.25;2.00;;;;;13.22;63.61;99914.44;4993834;28;45993;-82
2022/11/08 04:03:39;;;;;;;;;4.00;3.00;;;;;13.27;63.50;99930.59;4993473;28;45894;-80
2022/11/08 04:06:04;;;;;;;;;4.00;3.00;;;;;13.27;63.79;99924.50;4992240;28;45969;-78
2022/11/08 04:08:30;;;;;;;;;3.25;3.00;;;;;13.26;63.95;99928.09;4992090;28;46092;-79
2022/11/08 04:10:56;;;;;;;;;4.00;3.00;;;;;13.25;63.69;99924.66;4991954;28;46150;-79
2022/11/08 04:16:06;;;;;;;;;4.00;4.00;;;;;13.25;63.46;99924.66;4992871;28;45780;-80
2022/11/08 04:21:23;;;;;;;;;2.00;2.00;;;;;13.25;63.70;99924.66;4992101;28;46017;-80
2022/11/08 04:23:52;;;;;;;;;3.00;2.75;;;;;13.20;63.49;99916.34;4992102;28;45905;-81
2022/11/08 04:26:20;;;;;;;;;3.00;2.00;;;;;13.27;63.67;99932.41;4991541;28;45646;-81
2022/11/08 04:28:45;;;;;;;;;5.75;3.00;;;;;13.26;63.52;99925.47;4974056;28;48401;-79
2022/11/08 04:31:17;;;;;;;;;2.75;2.75;;;;;13.15;63.52;99915.97;5050506;28;46272;-81
2022/11/08 04:33:42;;;;;;;;;3.75;3.00;;;;;13.26;63.45;99920.22;5053585;28;45661;-81
2022/11/08 04:36:16;;;;;;;;;2.75;2.75;;;;;13.22;63.34;99921.47;5034512;28;45710;-80
2022/11/08 04:38:47;;;;;;;;;3.00;3.00;;;;;13.21;63.11;99915.38;5053089;28;47422;-81
2022/11/08 04:41:16;;;;;;;;;3.00;2.75;;;;;13.25;63.29;99927.28;5053169;28;47089;-80
2022/11/08 04:43:43;;;;;;;;;3.00;3.00;;;;;13.26;63.34;99922.84;5036064;28;45813;-82
2022/11/08 04:46:14;;;;;;;;;2.25;2.00;;;;;13.17;63.10;99914.00;5053719;28;45689;-81
2022/11/08 04:48:40;;;;;;;;;3.25;3.00;;;;;13.24;63.39;99930.03;5053174;28;46616;-81
2022/11/08 04:51:15;;;;;;;;;3.25;3.00;;;;;13.21;62.87;99909.28;5053507;28;46400;-80
2022/11/08 04:53:41;;;;;;;;;3.00;3.00;;;;;13.22;62.87;99930.22;5056590;28;45686;-81
2022/11/08 04:56:12;;;;;;;;;3.50;2.75;;;;;13.20;63.12;99926.88;5055539;28;45700;-81
2022/11/08 04:58:42;;;;;;;;;2.00;2.00;;;;;13.22;62.67;99927.56;5036011;28;47461;-79
2022/11/08 05:01:10;;;;;;;;;3.75;3.00;;;;;13.21;62.80;99920.66;5035330;28;46374;-81
2022/11/08 05:03:35;;;;;;;;;4.00;3.00;;;;;13.21;63.11;99918.03;5054587;28;45428;-82
2022/11/08 05:12:26;;;;;;;;;4.00;4.00;;;;;13.20;62.95;99907.63;5054319;28;46200;-80
2022/11/08 05:14:52;;;;;;;;;4.00;3.00;;;;;13.16;62.61;99922.88;5056214;28;45921;-79
2022/11/08 05:17:17;;;;;;;;;4.00;3.00;;;;;13.07;62.51;99900.00;5055875;28;45763;-81
2022/11/08 05:25:10;;;;;;;;;3.00;2.00;;;;;13.13;62.57;99914.44;5053164;28;45642;-79
2022/11/08 05:27:37;;;;;;;;;3.00;2.00;;;;;13.13;62.68;99915.25;5052826;28;45723;-80
2022/11/08 05:30:03;;;;;;;;;2.00;2.00;;;;;13.13;62.36;99917.06;5052678;28;45652;-81
2022/11/08 05:32:28;;;;;;;;;3.00;3.00;;;;;13.12;62.55;99910.97;5052600;28;46427;-81
2022/11/08 05:34:53;;;;;;;;;3.00;3.00;;;;;13.13;62.63;99922.31;5053214;28;45625;-81
2022/11/08 05:37:18;;;;;;;;;3.00;2.25;;;;;13.08;62.50;99914.00;5052751;28;45686;-79
2022/11/08 05:39:44;;;;;;;;;3.00;3.00;;;;;13.12;62.83;99920.69;5052874;28;45471;-81
2022/11/08 05:42:09;;;;;;;;;2.75;2.75;;;;;13.13;62.25;99919.69;5034798;28;47223;-80
2022/11/08 05:44:35;;;;;;;;;3.00;3.00;;;;;13.13;62.43;99917.06;5035149;28;45563;-81
2022/11/08 05:47:00;;;;;;;;;4.00;3.00;;;;;13.08;62.51;99909.56;5053885;28;45707;-81
2022/11/08 05:49:25;;;;;;;;;4.00;3.00;;;;;13.11;62.78;99911.94;5056128;28;46412;-79
2022/11/08 05:51:51;;;;;;;;;3.25;3.25;;;;;13.10;62.20;99902.38;5037925;28;45808;-81
2022/11/08 05:54:27;;;;;;;;;4.00;3.75;;;;;13.08;62.23;99911.38;5056130;28;45629;-82
2022/11/08 05:56:53;;;;;;;;;3.50;3.00;;;;;13.11;62.67;99918.97;5056059;28;45718;-81
2022/11/08 05:59:19;;;;;;;;;3.00;2.50;;;;;13.11;62.58;99913.72;5056019;28;46395;-79
2022/11/08 06:01:44;;;;;;;;;3.50;3.00;;;;;13.11;62.32;99921.63;5056408;28;46177;-78
2022/11/08 06:04:09;;;;;;;;;3.00;3.00;;;;;13.10;62.58;99915.53;5056885;28;45585;-78
2022/11/08 06:13:05;;;;;;;;;4.25;3.00;;;;;13.06;62.29;99910.69;5056600;28;45803;-83
2022/11/08 06:15:30;;;;;;;;;3.00;3.00;;;;;13.05;62.78;99915.13;5056113;28;45729;-80
2022/11/08 06:18:00;;;;;;;;;3.00;3.00;;;;;13.00;62.59;99918.19;5056884;28;45714;-81
2022/11/08 06:20:26;;;;;;;;;3.00;3.00;;;;;13.02;62.73;99920.66;5056296;28;46593;-81
2022/11/08 06:22:53;;;;;;;;;2.25;2.00;;;;;13.04;62.20;99923.97;5057887;28;46176;-81
2022/11/08 06:25:19;;;;;;;;;3.00;2.00;;;;;13.01;62.31;99919.81;5058230;28;45823;-80
2022/11/08 06:27:44;;;;;;;;;3.00;2.00;;;;;13.01;62.31;99911.09;5057582;28;45716;-83
2022/11/08 06:30:10;;;;;;;;;3.00;2.00;;;;;13.01;62.63;99911.94;5058552;28;45773;-80
2022/11/08 06:32:38;;;;;;;;;5.25;4.50;;;;;12.93;62.55;99903.94;5056906;28;46051;-78
2022/11/08 06:35:03;;;;;;;;;4.00;3.00;;;;;12.95;62.42;99909.06;5055563;28;45493;-77
2022/11/08 06:37:29;;;;;;;;;3.75;3.00;;;;;12.95;62.41;99903.78;5053653;28;45605;-78
2022/11/08 06:39:54;;;;;;;;;3.25;3.25;;;;;12.99;62.53;99913.06;5054561;28;46908;-82
2022/11/08 06:42:20;;;;;;;;;4.00;4.00;;;;;12.98;62.78;99928.00;5054857;28;47114;-77
2022/11/08 06:44:45;;;;;;;;;4.25;4.00;;;;;13.03;62.72;99928.41;5055380;28;45544;-77
2022/11/08 06:47:10;;;;;;;;;3.00;3.00;;;;;13.06;62.63;99947.50;5054637;28;45626;-77
2022/11/08 06:49:36;;;;;;;;;3.25;2.50;;;;;13.06;62.44;99969.38;5055272;28;46211;-77
2022/11/08 06:52:02;;;;;;;;;4.00;3.00;;;;;13.07;62.78;99957.03;5054235;28;45878;-77
2022/11/08 06:57:50;;;;;;;;;3.00;3.00;;;;;13.04;62.75;99951.09;5054476;28;45721;-77
2022/11/08 07:00:16;;;;;;;;;3.25;2.75;;;;;13.03;62.50;99941.56;5054612;28;45553;-80
2022/11/08 07:02:43;;;;;;;;;11.75;10.00;;;;;13.07;62.27;99954.41;5054973;28;46554;-75
2022/11/08 07:05:09;;;;;;;;;27.75;26.00;;;;;13.02;62.28;99939.06;5054402;28;45762;-75
2022/11/08 07:07:34;;;;;;;;;3.00;3.00;;;;;13.05;62.27;99944.06;5054427;28;45583;-79
2022/11/08 07:10:00;;;;;;;;;5.75;5.00;;;;;13.08;62.75;99956.06;5054461;28;47564;-78
2022/11/08 07:12:25;;;;;;;;;10.25;9.25;;;;;13.08;62.64;99954.28;5053833;28;47354;-75
2022/11/08 07:14:50;;;;;;;;;8.00;5.00;;;;;13.03;62.30;99944.19;5054373;28;45760;-76
2022/11/08 07:17:15;;;;;;;;;5.75;4.00;;;;;13.09;62.35;99955.94;5054403;28;45866;-79
2022/11/08 07:19:41;;;;;;;;;4.00;3.75;;;;;13.01;62.35;99945.28;5036939;28;47684;-79
2022/11/08 07:22:06;;;;;;;;;1.50;1.50;;;;;13.09;62.18;99966.47;5056418;28;47998;-79
2022/11/08 07:27:55;;;;;;;;;4.00;4.00;;;;;13.09;62.54;99958.56;5052977;28;45639;-74
2022/11/08 07:30:21;;;;;;;;;4.00;3.00;;;;;13.07;62.27;99947.34;5052940;28;47685;-75
2022/11/08 07:32:46;;;;;;;;;4.00;3.50;;;;;13.09;62.63;99950.69;5053476;28;45847;-78
2022/11/08 07:35:12;;;;;;;;;3.00;2.50;;;;;13.11;62.17;99958.44;5053743;28;45847;-77
2022/11/08 07:37:37;;;;;;;;;3.25;3.00;;;;;13.09;62.15;99963.81;5053712;28;45652;-77
2022/11/08 07:40:03;;;;;;;;;6.75;6.75;;;;;13.12;62.55;99962.75;5053655;28;47263;-78
2022/11/08 07:42:28;;;;;;;;;6.50;5.00;;;;;13.12;62.12;99968.81;5054024;28;45729;-77
2022/11/08 07:44:53;;;;;;;;;3.00;3.00;;;;;13.14;62.15;99982.69;5053967;28;45576;-77
2022/11/08 07:47:19;;;;;;;;;4.00;4.00;;;;;13.09;62.30;99963.00;5053792;28;45866;-77
2022/11/08 07:49:44;;;;;;;;;4.00;3.00;;;;;13.19;62.14;99974.34;5054190;28;46625;-78
2022/11/08 07:52:09;;;;;;;;;4.50;2.75;;;;;13.21;62.48;99962.75;5053243;28;46570;-77
2022/11/08 07:58:00;;;;;;;;;5.00;3.00;;;;;13.21;62.35;99965.38;5053732;28;45672;-78
2022/11/08 08:00:35;;;;;;;;;2.75;2.75;;;;;13.30;62.49;99968.94;5053471;28;46777;-78
2022/11/08 08:03:01;;;;;;;;;4.00;4.00;;;;;13.29;62.36;99970.72;5053673;28;46252;-75
2022/11/08 08:05:29;;;;;;;;;4.00;3.00;;;;;13.34;62.48;99971.13;5053819;28;45796;-77
2022/11/08 08:07:57;;;;;;;;;3.00;3.00;;;;;13.34;62.51;99960.59;5053438;28;45574;-76
2022/11/08 08:10:23;;;;;;;;;3.50;3.50;;;;;13.38;62.12;99950.66;5052861;28;45602;-78
2022/11/08 08:12:48;;;;;;;;;3.75;3.75;;;;;13.42;62.13;99950.22;5053857;28;45544;-78
2022/11/08 08:15:14;;;;;;;;;2.75;2.50;;;;;13.46;62.24;99950.75;5053797;28;45643;-78
2022/11/08 08:17:40;;;;;;;;;4.00;3.75;;;;;13.45;62.49;99936.75;5035619;28;45831;-78
2022/11/08 08:20:06;;;;;;;;;4.00;4.00;;;;;13.51;62.49;99930.09;5053146;28;47359;-78
2022/11/08 08:22:31;;;;;;;;;2.75;2.75;;;;;13.55;62.29;99939.34;5053773;28;46154;-77
2022/11/08 08:28:20;;;;;;;;;2.00;2.00;;;;;13.59;62.45;99921.50;5053124;28;45547;-78
2022/11/08 08:30:45;;;;;;;;;3.00;3.00;;;;;13.66;62.00;99925.19;5053350;28;46526;-78
2022/11/08 08:33:13;;;;;;;;;3.25;3.25;;;;;13.70;61.97;99927.41;5053640;28;46945;-78
2022/11/08 08:35:39;;;;;;;;;3.00;3.00;;;;;13.73;62.31;99924.47;5053598;28;45791;-77
2022/11/08 08:44:29;;;;;;;;;4.25;3.75;;;;;13.76;62.03;99944.41;5053059;28;45751;-78
2022/11/08 08:46:55;;;;;;;;;4.00;2.00;;;;;13.83;62.12;99945.47;5052869;28;45599;-77
2022/11/08 08:49:21;;;;;;;;;3.00;2.50;;;;;13.91;62.62;99964.03;5053357;28;45528;-77
2022/11/08 08:51:46;;;;;;;;;4.25;3.25;;;;;13.88;62.23;99951.97;5053245;28;45610;-76
2022/11/08 08:54:14;;;;;;;;;4.75;3.00;;;;;13.97;62.49;99952.91;5053384;28;46409;-78
2022/11/08 08:56:40;;;;;;;;;2.00;2.00;;;;;14.02;62.61;99963.00;5052977;28;45708;-78
2022/11/08 08:59:05;;;;;;;;;3.75;3.00;;;;;14.07;62.35;99963.38;5052927;28;45605;-77
2022/11/08 09:01:30;;;;;;;;;2.75;2.75;;;;;14.13;62.37;99965.44;5052732;28;47104;-78
2022/11/08 09:03:57;;;;;;;;;3.25;3.25;;;;;14.17;62.41;99959.72;5052922;28;47030;-77
2022/11/08 09:06:23;;;;;;;;;4.00;4.00;;;;;14.25;62.03;99964.25;5052809;28;45758;-76
2022/11/08 09:08:48;;;;;;;;;1.50;1.50;;;;;14.30;62.30;99954.09;5053306;28;45580;-75
2022/11/08 09:11:13;;;;;;;;;3.00;3.00;;;;;14.36;62.07;99961.38;5053018;28;46251;-78
2022/11/08 09:13:39;;;;;;;;;3.00;3.00;;;;;14.28;62.19;99937.59;5053108;28;46283;-77
2022/11/08 09:16:06;;;;;;;;;3.75;3.00;;;;;14.47;62.22;99957.72;5052912;28;45674;-77
2022/11/08 09:18:32;;;;;;;;;4.25;4.25;;;;;14.53;62.18;99955.31;5052761;28;45573;-77
2022/11/08 09:20:59;;;;;;;;;1.00;1.00;;;;;14.57;62.10;99947.97;5052577;28;47415;-76
2022/11/08 09:23:25;;;;;;;;;3.75;3.00;;;;;14.65;62.19;99967.31;5056083;28;45589;-78
2022/11/08 09:25:56;;;;;;;;;2.50;2.00;;;;;14.70;62.33;99970.31;5056247;28;45705;-79
2022/11/08 09:28:21;;;;;;;;;2.00;2.00;;;;;14.75;62.33;99977.78;5056408;28;45835;-77
2022/11/08 09:30:46;;;;;;;;;4.75;3.00;;;;;14.81;62.37;99977.19;5055823;28;46348;-75
2022/11/08 09:33:12;;;;;;;;;1.75;1.50;;;;;14.86;62.40;99984.63;5056143;28;47174;-77
2022/11/08 09:35:37;;;;;;;;;3.25;2.75;;;;;14.91;62.39;99963.91;5056317;28;46050;-77
2022/11/08 09:38:03;;;;;;;;;3.25;2.00;;;;;14.94;62.09;99972.34;5055923;28;45625;-78
2022/11/08 09:44:28;;;;;;;;;3.25;3.00;;;;;15.06;62.19;99959.75;5055842;28;45905;-76
2022/11/08 09:47:03;;;;;;;;;2.00;1.75;;;;;15.10;62.26;99959.28;4993752;28;45771;-78
2022/11/08 09:49:34;;;;;;;;;3.00;3.00;;;;;15.18;62.05;99965.59;4993969;28;45837;-78
2022/11/08 09:52:03;;;;;;;;;4.00;2.25;;;;;15.24;62.33;99967.63;4993603;28;45762;-75
2022/11/08 09:54:37;;;;;;;;;2.00;1.00;;;;;15.28;61.97;99964.50;4993521;28;46490;-77
2022/11/08 09:57:05;;;;;;;;;2.00;2.00;;;;;15.35;62.00;99962.09;4993624;28;45763;-78
2022/11/08 09:59:53;;;;;;;;;2.00;1.75;;;;;15.40;62.24;99957.16;4993722;28;45879;-78
2022/11/08 10:02:22;;;;;;;;;2.00;2.00;;;;;15.27;62.04;99931.22;4954320;28;45964;-78
2022/11/08 10:04:56;;;;;;;;;3.75;3.00;;;;;15.42;62.21;99944.66;4954731;28;45613;-78
2022/11/08 10:07:36;;;;;;;;;2.00;2.00;;;;;15.58;61.67;99946.56;4954465;28;45732;-78
2022/11/08 10:10:19;;;;;;;;;3.50;3.00;;;;;15.62;61.88;99959.31;4954541;28;45732;-77
2022/11/08 10:13:03;;;;;;;;;2.00;2.00;;;;;15.66;61.79;99960.63;4954580;28;46553;-76
2022/11/08 10:15:52;;;;;;;;;3.00;2.25;;;;;15.72;61.61;99972.38;4954273;28;46549;-78
2022/11/08 10:18:48;;;;;;;;;1.00;1.00;;;;;15.74;61.77;99967.78;4954193;28;45803;-78
2022/11/08 10:21:22;;;;;;;;;4.00;3.00;;;;;15.77;61.87;99960.38;4979299;28;45778;-78
2022/11/08 10:27:26;;;;;;;;;3.50;3.25;;;;;15.86;61.87;99953.31;4992945;28;46085;-78
2022/11/08 10:29:58;;;;;;;;;1.00;1.00;;;;;15.93;61.70;99964.88;4993423;28;45619;-77
2022/11/08 10:32:23;;;;;;;;;3.00;2.00;;;;;16.02;61.83;99969.25;4992982;28;45831;-78
2022/11/08 10:35:07;;;;;;;;;4.00;3.00;;;;;16.10;61.57;99971.06;4993239;28;45869;-78
2022/11/08 10:37:33;;;;;;;;;3.00;2.00;;;;;15.98;61.81;99933.53;4990178;28;46392;-77
2022/11/08 10:43:37;;;;;;;;;2.00;2.00;;;;;16.30;61.72;99957.41;5055232;28;45752;-78
2022/11/08 10:46:03;;;;;;;;;2.50;2.50;;;;;16.34;61.93;99952.66;5054947;28;47722;-79
2022/11/08 10:48:32;;;;;;;;;2.00;2.00;;;;;16.42;61.98;99951.81;5054753;28;46105;-79
2022/11/08 10:50:58;;;;;;;;;3.00;2.75;;;;;16.43;62.04;99945.53;5055147;28;45829;-78
2022/11/08 10:53:26;;;;;;;;;2.00;2.00;;;;;16.52;61.84;99944.59;5055502;28;45727;-78
2022/11/08 10:59:28;;;;;;;;;2.75;2.00;;;;;16.61;62.02;99951.56;5054799;28;45857;-77
2022/11/08 11:01:54;;;;;;;;;1.00;1.00;;;;;16.70;62.23;99950.56;5054804;28;45730;-76
2022/11/08 11:04:31;;;;;;;;;3.50;3.00;;;;;16.75;61.58;99946.44;5055139;28;45500;-76
2022/11/08 11:07:01;;;;;;;;;2.75;1.50;;;;;16.84;61.46;99935.88;5054456;28;46354;-77
2022/11/08 11:09:26;;;;;;;;;1.75;1.75;;;;;16.89;61.74;99931.75;5055016;28;45977;-79
2022/11/08 11:11:57;;;;;;;;;2.00;1.00;;;;;16.86;61.76;99916.19;5054555;28;45632;-77
2022/11/08 11:14:23;;;;;;;;;3.00;2.00;;;;;17.00;61.46;99947.28;5055021;28;45681;-76
2022/11/08 11:16:59;;;;;;;;;2.00;2.00;;;;;17.01;61.08;99946.25;5054514;28;46738;-78
2022/11/08 11:19:26;;;;;;;;;1.75;1.75;;;;;17.10;61.47;99953.22;5054554;28;45981;-76
2022/11/08 11:22:00;;;;;;;;;4.00;3.00;;;;;17.15;61.20;99944.78;5054343;28;45695;-77
2022/11/08 11:24:25;;;;;;;;;2.75;2.25;;;;;17.13;60.99;99941.47;5054653;28;45691;-77
2022/11/08 11:27:13;;;;;;;;;2.00;2.00;;;;;17.24;60.91;99921.75;5054353;28;46282;-78
2022/11/08 11:29:39;;;;;;;;;3.00;3.00;;;;;17.29;61.44;99927.38;5054401;28;46089;-78
2022/11/08 11:32:30;;;;;;;;;4.75;4.75;;;;;17.34;60.99;99925.88;5054025;28;45753;-77
2022/11/08 11:35:00;;;;;;;;;3.00;3.00;;;;;17.38;60.92;99931.66;5054560;28;45654;-76
2022/11/08 11:37:35;;;;;;;;;7.25;4.75;;;;;17.40;61.40;99941.09;5053874;28;45536;-79
2022/11/08 11:40:36;;;;;;;;;3.25;2.75;;;;;17.42;61.19;99935.63;5054145;28;46168;-78
2022/11/08 11:43:25;;;;;;;;;3.00;2.25;;;;;17.46;60.78;99936.94;5054190;28;45542;-78
2022/11/08 11:46:12;;;;;;;;;4.25;3.00;;;;;17.46;60.71;99939.59;5053616;28;45612;-79
2022/11/08 11:48:47;;;;;;;;;2.00;2.00;;;;;17.50;61.27;99925.00;5053903;28;46548;-77
2022/11/08 11:51:13;;;;;;;;;3.00;3.00;;;;;17.53;61.11;99925.50;5054128;28;45585;-78
2022/11/08 11:53:40;;;;;;;;;3.00;3.00;;;;;17.56;61.22;99929.63;5054271;28;45807;-76
2022/11/08 11:56:12;;;;;;;;;2.00;2.00;;;;;17.59;60.79;99929.28;5054026;28;45730;-79
2022/11/08 11:58:49;;;;;;;;;3.75;3.25;;;;;17.61;60.62;99927.31;5053990;28;45613;-79
2022/11/08 12:01:30;;;;;;;;;4.00;2.00;;;;;17.62;60.70;99936.91;5053662;28;45640;-78
2022/11/08 12:04:10;;;;;;;;;2.75;2.75;;;;;17.63;60.60;99938.56;5053956;28;45607;-77
2022/11/08 12:06:43;;;;;;;;;4.50;4.00;;;;;17.66;61.16;99930.28;5053801;28;45762;-77
2022/11/08 12:09:16;;;;;;;;;2.00;2.00;;;;;17.66;60.50;99930.28;5053683;28;46620;-77
2022/11/08 12:12:05;;;;;;;;;3.00;3.00;;;;;17.70;60.57;99914.88;5053603;28;46290;-78
2022/11/08 12:14:47;;;;;;;;;2.75;2.00;;;;;17.74;60.73;99926.78;5053518;28;45638;-78
2022/11/08 12:17:36;;;;;;;;;2.75;2.00;;;;;17.74;61.05;99924.13;5053504;28;45767;-78
2022/11/08 12:20:28;;;;;;;;;3.00;2.00;;;;;17.78;60.52;99918.31;5053539;28;46452;-78
2022/11/08 12:23:04;;;;;;;;;3.50;3.50;;;;;17.81;60.67;99922.44;5053609;28;46023;-79
2022/11/08 12:29:07;;;;;;;;;4.00;3.00;;;;;17.80;60.23;99904.91;5053505;28;45644;-77
2022/11/08 12:31:43;;;;;;;;;2.00;1.75;;;;;17.86;60.97;99914.81;5053151;28;46663;-78
2022/11/08 12:34:27;;;;;;;;;3.00;2.75;;;;;17.89;60.86;99907.34;5053530;28;46265;-78
2022/11/08 12:37:19;;;;;;;;;4.75;3.00;;;;;17.92;60.87;99908.81;5052866;28;45646;-78
2022/11/08 12:39:56;;;;;;;;;3.00;2.50;;;;;17.95;61.11;99908.47;5029248;28;45900;-78
2022/11/08 12:42:52;;;;;;;;;4.00;4.00;;;;;17.92;60.91;99888.41;5053346;28;46538;-78
2022/11/08 12:45:29;;;;;;;;;5.00;4.00;;;;;18.03;60.49;99905.75;5053434;28;46340;-79
2022/11/08 12:48:25;;;;;;;;;3.25;3.00;;;;;18.04;60.47;99904.75;5053232;28;45530;-79
2022/11/08 12:51:03;;;;;;;;;6.25;4.00;;;;;18.05;60.46;99903.75;5034991;28;45600;-78
2022/11/08 12:53:47;;;;;;;;;3.00;3.00;;;;;18.04;60.97;99894.16;5053196;28;45614;-77
2022/11/08 12:56:27;;;;;;;;;4.00;4.00;;;;;18.09;60.29;99912.19;5056054;28;45892;-78
2022/11/08 12:58:53;;;;;;;;;3.25;3.00;;;;;18.04;60.78;99894.97;5059584;28;45584;-78
2022/11/08 13:01:20;;;;;;;;;3.00;3.00;;;;;18.08;60.68;99898.13;5059747;28;45538;-77
2022/11/08 13:04:17;;;;;;;;;2.75;2.25;;;;;18.09;60.91;99907.72;5059148;28;46619;-75
2022/11/08 13:07:15;;;;;;;;;2.50;2.00;;;;;18.10;60.82;99905.88;5059475;28;46220;-78
2022/11/08 13:09:48;;;;;;;;;3.75;3.00;;;;;18.11;60.71;99902.25;5025275;28;45767;-79
2022/11/08 13:12:39;;;;;;;;;3.00;2.25;;;;;18.13;60.78;99908.22;5056540;28;45691;-78